• Join FlightAware (Why Join?)
  • Login
  • US Flag 
10:53PM EST


 

Airport Tracker/Info


-or-


 

Live Flight TrackerFlight Track Log ✈ SWA4758 ✈ 27-Dec-2012 ✈ KBWI - KMHT

Flight Track Log - Related Links

Times and Time Zones

All times are in EST time to prevent confusion due to time zone crossing. See the SWA4758 flight status page for this flight to view local times or setup timezone preferences in your user account.

Time Position Orientation Groundspeed Altitude Reporting Facility
EST Latitude Longitude Course Direction KTS MPH feet Rate Location/Type
01:22AM 39.1875 -76.7056 171° South 140 161 2,600  Level Washington Center
01:23AM 39.1439 -76.6969 171° South 183 211 6,300 3,000 Climbing Washington Center
01:24AM 39.1425 -76.6058 91° East 239 275 8,800 2,880 Climbing Washington Center
01:25AM 39.1456 -76.4828 88° East 286 329 12,100 3,660 Climbing Washington Center
01:26AM 39.1922 -76.3683 62° Northeast 315 362 16,100 3,720 Climbing Washington Center
01:27AM 39.2533 -76.2617 53° Northeast 334 384 19,600 3,060 Climbing Washington Center
01:28AM 39.3186 -76.1417 55° Northeast 364 419 22,300 2,640 Climbing Washington Center
01:29AM 39.3817 -76.0131 58° Northeast 401 461 25,000 2,520 Climbing Washington Center
01:30AM 39.4194 -75.8522 73° East 436 502 27,500 2,280 Climbing Washington Center
01:31AM 39.4553 -75.6831 75° East 463 533 29,500 1,680 Climbing Washington Center
01:32AM 39.4928 -75.5000 75° East 491 565 30,900 1,620 Climbing Washington Center
01:33AM 39.5736 -75.3572 54° Northeast 492 566 32,800 2,100 Climbing Washington Center
01:34AM 39.7347 -75.1900 39° Northeast 492 566 36,600 1,560 Climbing New York Center
01:35AM 39.8286 -75.0769 43° Northeast 473 544 37,000 180 Climbing New York Center
01:36AM 39.9331 -74.9561 42° Northeast 460 529 37,000  Level New York Center
01:37AM 40.0286 -74.8481 41° Northeast 450 518 37,000  Level New York Center
01:38AM 40.1219 -74.7367 42° Northeast 439 505 37,000  Level New York Center
01:39AM 40.2086 -74.6411 40° Northeast 444 511 37,000  Level New York Center
01:40AM 40.3189 -74.5111 42° Northeast 457 526 37,000  Level New York Center
01:43AM 40.5267 -74.2667 42° Northeast 457 526 37,000  Level Boston Center
01:44AM 40.6222 -74.1517 42° Northeast 457 526 37,000  Level Boston Center
01:45AM 40.7156 -74.0419 42° Northeast 452 520 37,000  Level Boston Center
01:46AM 40.8044 -73.9453 39° Northeast 452 520 37,000  Level Boston Center
01:47AM 40.8997 -73.8322 42° Northeast 452 520 37,000  Level Boston Center
01:48AM 40.9928 -73.7161 43° Northeast 452 520 37,000  Level Boston Center
01:49AM 41.0878 -73.6050 41° Northeast 452 520 37,000  Level Boston Center
01:50AM 41.1806 -73.4936 42° Northeast 452 520 37,000  Level Boston Center
01:51AM 41.2817 -73.3708 42° Northeast 446 513 37,000  Level Boston Center
01:52AM 41.3742 -73.2589 42° Northeast 446 513 37,000  Level Boston Center
01:53AM 41.4667 -73.1436 43° Northeast 446 513 37,000 -360 Level Boston Center
01:54AM 41.5444 -73.0447 44° Northeast 446 513 36,300 -1,380 Descending Boston Center
01:55AM 41.6386 -72.9289 43° Northeast 441 507 34,300 -2,340 Descending Boston Center
01:56AM 41.7308 -72.8156 43° Northeast 447 514 31,700 -2,940 Descending Boston Center
01:57AM 41.8333 -72.6853 43° Northeast 459 528 28,500 -3,420 Descending Boston Center
01:58AM 41.9125 -72.5908 42° Northeast 450 518 24,900 -3,300 Descending Boston Center
01:59AM 42.0022 -72.4764 43° Northeast 444 511 22,000 -2,460 Descending Boston Center
02:00AM 42.0856 -72.3731 43° Northeast 425 489 20,000 -1,860 Descending Boston Center
02:01AM 42.1689 -72.2692 43° Northeast 386 444 18,300 -1,920 Descending Boston Center
02:02AM 42.2397 -72.1794 43° Northeast 345 397 16,200 -1,800 Descending Boston Center
02:03AM 42.3061 -72.0919 44° Northeast 336 387 14,700 -1,500 Descending Boston Center
02:04AM 42.3642 -72.0158 44° Northeast 326 375 13,300 -1,680 Descending Boston Center
02:05AM 42.4347 -71.9281 43° Northeast 315 362 11,400 -1,440 Descending Boston Center
02:06AM 42.4906 -71.8572 43° Northeast 309 356 10,500 -1,080 Descending Boston Center
02:07AM 42.5547 -71.7750 43° Northeast 297 342 9,300 -1,020 Descending Boston Center
02:09AM 42.7090 -71.6930 43° Northeast  Level FlightAware Approximate
02:13AM 42.7833 -71.3500 44° Northeast 171 197 3,000  Level KA90
02:14AM 42.8058 -71.3592 343° North 162 186 2,800 -660 Descending Boston Center
02:15AM 42.8456 -71.3839 335° Northwest 146 168 2,000 -720 Descending Boston Center
02:16AM 42.9167 -71.4333 44° Northeast  Level FlightAware Approximate
02:16AM 42.8708 -71.3975 338° Northwest 122 140 1,400  Level Boston Center
02:17AM 42.9328 -71.4358 44° Northeast  Level Estimated
02:17AM 42.9022 -71.4169 336° Northwest 117 135 700  Level Boston Center
02:18AM 42.9328 -71.4358 44° Northeast  Level Estimated
02:18AM 42.9336 -71.4361 336° Northwest 117 135 400  Level Boston Center
02:19AM 42.9650 -71.4583 333° Northwest 117 135 7,000 3,300 Climbing Boston Center
02:20AM 42.9967 -71.4778 336° Northwest 117 135 7,000  Level Boston Center